createdAt,value
2019-05-15T00:02:20.025Z,4.67
2019-05-15T00:07:29.412Z,5.60
2019-05-15T00:12:39.213Z,4.30
2019-05-15T00:17:44.735Z,7.33
2019-05-15T00:22:50.966Z,6.17
2019-05-15T00:27:58.241Z,6.40
2019-05-15T00:33:05.440Z,5.65
2019-05-15T00:38:11.655Z,4.63
2019-05-15T00:43:18.377Z,5.07
2019-05-15T00:48:24.702Z,5.83
2019-05-15T00:53:31.621Z,5.93
2019-05-15T00:58:39.982Z,4.17
2019-05-15T01:03:45.679Z,7.75
2019-05-15T01:08:51.803Z,5.53
2019-05-15T01:13:58.484Z,7.97
2019-05-15T01:19:05.232Z,6.28
2019-05-15T01:24:11.501Z,4.97
2019-05-15T01:29:18.225Z,4.85
2019-05-15T01:34:25.801Z,6.93
2019-05-15T01:39:32.166Z,5.33
2019-05-15T01:44:38.994Z,4.83
2019-05-15T01:49:45.466Z,6.17
2019-05-15T01:54:51.776Z,7.30
2019-05-15T02:00:00.750Z,5.80
2019-05-15T02:05:08.510Z,6.77
2019-05-15T02:10:14.093Z,5.40
2019-05-15T02:15:20.931Z,5.30
2019-05-15T02:20:28.959Z,7.50
2019-05-15T02:25:34.688Z,4.60
2019-05-15T02:30:41.192Z,6.17
2019-05-15T02:35:50.168Z,5.03
2019-05-15T02:40:59.009Z,4.93
2019-05-15T02:46:05.312Z,6.13
2019-05-15T02:51:11.362Z,6.85
2019-05-15T02:56:20.338Z,5.83
2019-05-15T03:01:25.239Z,6.63
2019-05-15T03:06:31.321Z,5.65
2019-05-15T03:11:40.869Z,5.73
2019-05-15T03:16:45.417Z,5.73
2019-05-15T03:21:51.565Z,5.43
2019-05-15T03:26:59.344Z,5.37
2019-05-15T03:32:24.369Z,6.33
2019-05-15T03:37:14.725Z,5.73
2019-05-15T03:42:20.883Z,5.40
2019-05-15T03:47:29.957Z,6.33
2019-05-15T03:52:34.898Z,6.13
2019-05-15T03:57:41.236Z,5.67
2019-05-15T04:02:48.841Z,5.53
2019-05-15T04:07:55.255Z,7.53
2019-05-15T04:13:01.463Z,5.17
2019-05-15T04:18:09.205Z,7.53
2019-05-15T04:23:22.135Z,6.53
2019-05-15T04:28:30.092Z,5.70
2019-05-15T04:33:39.868Z,5.97
2019-05-15T04:38:49.336Z,6.23
2019-05-15T04:43:53.211Z,5.27
2019-05-15T04:48:59.698Z,5.63
2019-05-15T04:54:05.917Z,4.77
2019-05-15T04:59:12.146Z,6.75
2019-05-15T05:04:30.249Z,6.55
2019-05-15T05:09:38.916Z,6.58
2019-05-15T05:14:44.396Z,4.33
2019-05-15T05:19:51.469Z,4.85
2019-05-15T05:24:58.572Z,7.40
2019-05-15T05:30:08.155Z,6.30
2019-05-15T05:35:13.457Z,7.13
2019-05-15T05:40:19.677Z,6.57
2019-05-15T05:45:26.084Z,6.40
2019-05-15T05:50:44.390Z,9.65
2019-05-15T05:55:53.316Z,5.63
2019-05-15T06:00:58.936Z,6.13
2019-05-15T06:06:05.118Z,6.10
2019-05-15T06:11:11.281Z,5.77
2019-05-15T06:16:19.024Z,8.37
2019-05-15T06:21:28.391Z,6.47
2019-05-15T06:26:34.143Z,5.90
2019-05-15T06:31:40.251Z,9.78
2019-05-15T06:36:48.673Z,4.40
2019-05-15T06:41:54.450Z,7.53
2019-05-15T06:47:00.623Z,6.05
2019-05-15T06:52:08.742Z,4.33
2019-05-15T06:57:18.223Z,3.05
2019-05-15T07:02:23.897Z,4.60
2019-05-15T07:07:30.035Z,3.93
2019-05-15T07:12:38.794Z,3.67
2019-05-15T07:17:44.109Z,5.00
2019-05-15T07:22:50.250Z,4.58
2019-05-15T07:27:58.146Z,3.70
2019-05-15T07:33:05.501Z,5.43
2019-05-15T07:38:11.780Z,4.70
2019-05-15T07:43:18.361Z,5.33
2019-05-15T07:48:24.669Z,6.22
2019-05-15T07:53:30.859Z,5.27
2019-05-15T07:58:38.604Z,4.30
2019-05-15T08:03:56.549Z,5.77
2019-05-15T08:08:52.943Z,3.47
2019-05-15T08:13:59.146Z,4.03
2019-05-15T08:19:05.528Z,4.10
2019-05-15T08:24:11.691Z,4.50
2019-05-15T08:29:21.157Z,2.10
2019-05-15T08:34:28.133Z,1.90
2019-05-15T08:39:33.824Z,1.30
2019-05-15T08:44:40.333Z,2.60
2019-05-15T08:49:48.458Z,1.40
2019-05-15T08:54:54.840Z,3.08
2019-05-15T09:00:01.436Z,1.47
2019-05-15T09:05:09.985Z,3.80
2019-05-15T09:10:18.361Z,1.20
2019-05-15T09:15:24.724Z,2.60
2019-05-15T09:20:30.932Z,3.43
2019-05-15T09:25:39.022Z,1.73
2019-05-15T09:30:45.279Z,3.03
2019-05-15T09:35:51.555Z,1.40
2019-05-15T09:40:58.470Z,1.40
2019-05-15T09:46:07.570Z,1.40
2019-05-15T09:51:13.304Z,1.80
2019-05-15T09:56:19.538Z,3.17
2019-05-15T10:01:28.339Z,2.20
2019-05-15T10:06:33.718Z,2.90
2019-05-15T10:11:39.862Z,3.03
2019-05-15T10:16:48.120Z,3.13
2019-05-15T10:21:53.843Z,3.00
2019-05-15T10:26:59.946Z,4.13
2019-05-15T10:32:08.493Z,3.40
2019-05-15T10:37:14.152Z,3.47
2019-05-15T10:42:20.464Z,2.23
2019-05-15T10:47:28.913Z,3.80
2019-05-15T10:52:38.012Z,2.73
2019-05-15T10:57:44.521Z,1.60
2019-05-15T11:02:51.432Z,2.40
2019-05-15T11:07:58.901Z,3.20
2019-05-15T11:13:05.607Z,1.70
2019-05-15T11:18:12.245Z,2.90
2019-05-15T11:23:20.096Z,1.50
2019-05-15T11:28:31.754Z,1.72
2019-05-15T11:33:38.330Z,1.70
2019-05-15T11:38:43.712Z,3.33
2019-05-15T11:43:50.024Z,3.77
2019-05-15T11:48:58.681Z,1.57
2019-05-15T11:54:04.099Z,1.50
2019-05-15T11:59:10.177Z,3.17
2019-05-15T12:04:27.642Z,1.50
2019-05-15T12:09:24.231Z,2.10
2019-05-15T12:14:30.378Z,2.37
2019-05-15T12:19:38.985Z,3.47
2019-05-15T12:24:44.375Z,1.83
2019-05-15T12:29:50.653Z,2.13
2019-05-15T12:34:59.994Z,4.27
2019-05-15T13:00:38.530Z,3.70
2019-05-15T13:05:44.727Z,2.90
2019-05-15T13:10:50.863Z,2.07
2019-05-15T13:15:59.016Z,3.40
2019-05-15T13:21:05.330Z,2.30
2019-05-15T13:26:22.947Z,2.60
2019-05-15T13:31:19.712Z,4.03
2019-05-15T13:36:28.500Z,2.73
2019-05-15T13:41:33.722Z,4.28
2019-05-15T13:46:39.870Z,1.80
2019-05-15T13:51:48.653Z,1.60
2019-05-15T13:56:53.907Z,4.77
2019-05-15T14:02:00.180Z,4.27
2019-05-15T14:07:08.566Z,1.72
2019-05-15T14:12:14.710Z,3.90
2019-05-15T14:17:21.080Z,3.80
2019-05-15T14:22:27.197Z,1.90
2019-05-15T14:27:34.147Z,3.30
2019-05-15T14:32:40.475Z,1.70
2019-05-15T14:38:02.253Z,2.80
2019-05-15T14:42:54.626Z,2.53
2019-05-15T14:48:00.881Z,2.30
2019-05-15T14:53:09.533Z,2.10
2019-05-15T14:58:15.449Z,3.75
2019-05-15T15:03:21.705Z,1.75
2019-05-15T15:08:29.254Z,2.30
2019-05-15T15:13:38.027Z,3.70
2019-05-15T15:18:43.762Z,3.53
2019-05-15T15:23:49.900Z,3.00
2019-05-15T15:28:56.270Z,3.58
2019-05-15T15:34:02.409Z,3.85
2019-05-15T15:39:08.959Z,4.60
2019-05-15T15:44:15.095Z,3.40
2019-05-15T15:49:21.368Z,3.57
2019-05-15T15:54:28.112Z,1.70
2019-05-15T15:59:34.464Z,5.40
2019-05-15T16:04:40.915Z,2.63
2019-05-15T16:09:48.291Z,2.63
2019-05-15T16:14:57.875Z,1.70
2019-05-15T16:20:04.180Z,2.17
2019-05-15T16:25:11.981Z,2.62
2019-05-15T16:30:18.943Z,2.50
2019-05-15T16:35:25.292Z,2.07
2019-05-15T16:40:31.485Z,2.77
2019-05-15T16:45:38.822Z,2.73
2019-05-15T16:50:45.506Z,2.47
2019-05-15T16:55:51.946Z,3.50
2019-05-15T17:00:58.639Z,2.80
2019-05-15T17:06:05.525Z,3.10
2019-05-15T17:11:12.300Z,3.13
2019-05-15T17:16:18.936Z,3.83
2019-05-15T17:21:25.241Z,2.37
2019-05-15T17:26:31.488Z,1.90
2019-05-15T17:31:38.048Z,3.13
2019-05-15T17:36:44.423Z,4.63
2019-05-15T17:41:50.748Z,3.00
2019-05-15T17:46:58.435Z,2.20
2019-05-15T17:52:08.787Z,2.50
2019-05-15T17:57:15.850Z,4.35
2019-05-15T18:02:22.108Z,3.07
2019-05-15T18:07:28.637Z,4.42
2019-05-15T18:12:38.537Z,1.83
2019-05-15T18:17:48.192Z,3.37
2019-05-15T18:22:54.632Z,1.93
2019-05-15T18:28:00.803Z,2.63
2019-05-15T18:33:08.608Z,2.57
2019-05-15T18:38:15.264Z,2.50
2019-05-15T18:43:21.655Z,4.53
2019-05-15T18:48:28.916Z,3.43
2019-05-15T18:53:35.326Z,3.10
2019-05-15T18:58:41.665Z,3.77
2019-05-15T19:03:47.930Z,1.53
2019-05-15T19:08:54.118Z,1.83
2019-05-15T19:14:00.254Z,3.45
2019-05-15T19:19:07.808Z,2.47
2019-05-15T19:24:13.968Z,2.97
2019-05-15T19:29:20.480Z,2.60
2019-05-15T19:34:28.141Z,2.40
2019-05-15T19:39:34.633Z,3.30
2019-05-15T19:44:40.835Z,1.97
2019-05-15T19:49:48.374Z,2.80
2019-05-15T19:54:54.722Z,2.40
2019-05-15T20:00:00.936Z,2.53
2019-05-15T20:05:09.252Z,3.87
2019-05-15T20:10:15.518Z,2.53
2019-05-15T20:15:22.016Z,2.17
2019-05-15T20:20:30.077Z,2.33
2019-05-15T20:25:38.218Z,2.37
2019-05-15T20:30:44.346Z,2.20
2019-05-15T20:35:53.997Z,5.15
2019-05-15T20:41:00.276Z,4.13
2019-05-15T20:46:08.435Z,2.42
2019-05-15T20:51:14.805Z,2.67
2019-05-15T20:56:20.882Z,3.13
2019-05-15T21:01:28.749Z,4.40
2019-05-15T21:06:34.824Z,3.17
2019-05-15T21:11:41.146Z,3.97
2019-05-15T21:16:48.439Z,2.35
2019-05-15T21:21:54.671Z,4.00
2019-05-15T21:27:00.907Z,2.87
2019-05-15T21:32:08.453Z,3.97
2019-05-15T21:37:14.950Z,3.50
2019-05-15T21:42:21.101Z,4.67
2019-05-15T21:47:28.053Z,3.13
2019-05-15T21:52:34.335Z,4.67
2019-05-15T21:57:43.613Z,6.07
2019-05-15T22:02:49.566Z,5.28
2019-05-15T22:07:58.501Z,5.77
2019-05-15T22:13:04.837Z,4.03
2019-05-15T22:18:11.475Z,3.20
2019-05-15T22:23:18.462Z,2.97
2019-05-15T22:28:24.791Z,2.53
2019-05-15T22:33:30.895Z,4.20
2019-05-15T22:38:37.095Z,4.12
2019-05-15T22:43:43.221Z,2.92
2019-05-15T22:48:49.350Z,4.35
2019-05-15T22:53:57.727Z,3.75
2019-05-15T22:59:03.350Z,3.12
2019-05-15T23:04:09.640Z,3.53
2019-05-15T23:09:15.907Z,3.15
2019-05-15T23:14:21.931Z,5.20
2019-05-15T23:19:28.307Z,2.90
2019-05-15T23:24:34.405Z,4.83
2019-05-15T23:29:40.440Z,4.03
2019-05-15T23:34:48.979Z,5.37
2019-05-15T23:39:54.543Z,4.83
2019-05-15T23:45:00.631Z,5.10
2019-05-15T23:50:06.805Z,4.23
2019-05-15T23:55:13.063Z,3.80
